<?xml version='1.0' encoding='UTF-8'?><gpx version="1.1" creator="JPX - https://github.com/jenetics/jpx" xmlns="http://www.topografix.com/GPX/1/1"><trk><trkseg><trkpt lat="45.7672829" lon="8.4899627"><ele>414.0</ele><time>2026-05-02T13:13:15.657Z</time></trkpt><trkpt lat="45.7674" lon="8.4899273"><ele>414.0</ele><time>2026-05-02T13:13:17.659Z</time></trkpt><trkpt lat="45.7674813" lon="8.4898363"><ele>414.0</ele><time>2026-05-02T13:13:19.658Z</time></trkpt><trkpt lat="45.7675674" lon="8.4897627"><ele>414.0</ele><time>2026-05-02T13:13:21.658Z</time></trkpt><trkpt lat="45.7676826" lon="8.4898162"><ele>414.0</ele><time>2026-05-02T13:13:23.658Z</time></trkpt><trkpt lat="45.7677503" lon="8.4898594"><ele>415.3333333333333</ele><time>2026-05-02T13:13:24.657Z</time></trkpt><trkpt lat="45.7678177" lon="8.4898909"><ele>416.66666666666663</ele><time>2026-05-02T13:13:25.658Z</time></trkpt><trkpt lat="45.767886" lon="8.489896"><ele>418.0</ele><time>2026-05-02T13:13:26.658Z</time></trkpt><trkpt lat="45.7679673" lon="8.4898795"><ele>419.3333333333333</ele><time>2026-05-02T13:13:27.657Z</time></trkpt><trkpt lat="45.7680484" lon="8.4898663"><ele>420.66666666666663</ele><time>2026-05-02T13:13:28.659Z</time></trkpt><trkpt lat="45.7681117" lon="8.4898554"><ele>422.0</ele><time>2026-05-02T13:13:29.658Z</time></trkpt><trkpt lat="45.7682125" lon="8.48984"><ele>422.0</ele><time>2026-05-02T13:13:31.658Z</time></trkpt><trkpt lat="45.7683088" lon="8.4897829"><ele>422.0</ele><time>2026-05-02T13:13:33.659Z</time></trkpt><trkpt lat="45.7684227" lon="8.4897413"><ele>422.0</ele><time>2026-05-02T13:13:35.658Z</time></trkpt><trkpt lat="45.768494" lon="8.4897264"><ele>422.0</ele><time>2026-05-02T13:13:36.658Z</time></trkpt><trkpt lat="45.7685774" lon="8.4897008"><ele>422.0</ele><time>2026-05-02T13:13:37.657Z</time></trkpt><trkpt lat="45.7686724" lon="8.4896779"><ele>423.49999999999994</ele><time>2026-05-02T13:13:38.658Z</time></trkpt><trkpt lat="45.7687796" lon="8.4896515"><ele>425.0</ele><time>2026-05-02T13:13:39.657Z</time></trkpt><trkpt lat="45.768861" lon="8.4896241"><ele>426.5</ele><time>2026-05-02T13:13:40.657Z</time></trkpt><trkpt lat="45.768938" lon="8.4895768"><ele>428.0</ele><time>2026-05-02T13:13:41.658Z</time></trkpt><trkpt lat="45.7690146" lon="8.4895226"><ele>429.49999999999994</ele><time>2026-05-02T13:13:42.658Z</time></trkpt><trkpt lat="45.7690866" lon="8.4894805"><ele>431.0</ele><time>2026-05-02T13:13:43.659Z</time></trkpt><trkpt lat="45.7691529" lon="8.4894649"><ele>431.0</ele><time>2026-05-02T13:13:44.658Z</time></trkpt><trkpt lat="45.7692424" lon="8.4894528"><ele>431.0</ele><time>2026-05-02T13:13:46.658Z</time></trkpt><trkpt lat="45.7693383" lon="8.4894393"><ele>431.0</ele><time>2026-05-02T13:13:48.658Z</time></trkpt><trkpt lat="45.7694384" lon="8.4894165"><ele>431.0</ele><time>2026-05-02T13:13:50.656Z</time></trkpt><trkpt lat="45.7695338" lon="8.4893744"><ele>431.0</ele><time>2026-05-02T13:13:52.658Z</time></trkpt><trkpt lat="45.7695954" lon="8.4894049"><ele>432.16666666666663</ele><time>2026-05-02T13:13:54.657Z</time></trkpt><trkpt lat="45.7696735" lon="8.4894647"><ele>433.3333333333333</ele><time>2026-05-02T13:14:04.657Z</time></trkpt><trkpt lat="45.7697624" lon="8.4895267"><ele>434.5</ele><time>2026-05-02T13:14:06.656Z</time></trkpt><trkpt lat="45.76981" lon="8.4895881"><ele>435.66666666666663</ele><time>2026-05-02T13:14:08.657Z</time></trkpt><trkpt lat="45.7698688" lon="8.4896388"><ele>436.8333333333333</ele><time>2026-05-02T13:14:10.656Z</time></trkpt><trkpt lat="45.7699433" lon="8.4896557"><ele>438.0</ele><time>2026-05-02T13:14:12.656Z</time></trkpt><trkpt lat="45.7700225" lon="8.4896399"><ele>438.79999999999995</ele><time>2026-05-02T13:14:14.658Z</time></trkpt><trkpt lat="45.7701035" lon="8.4895601"><ele>439.59999999999997</ele><time>2026-05-02T13:14:16.657Z</time></trkpt><trkpt lat="45.7701825" lon="8.4894596"><ele>440.40000000000003</ele><time>2026-05-02T13:14:18.657Z</time></trkpt><trkpt lat="45.7702687" lon="8.4893339"><ele>441.20000000000005</ele><time>2026-05-02T13:14:20.659Z</time></trkpt><trkpt lat="45.7703109" lon="8.4892558"><ele>442.0</ele><time>2026-05-02T13:14:21.658Z</time></trkpt><trkpt lat="45.7703799" lon="8.4891691"><ele>443.1666666666667</ele><time>2026-05-02T13:14:22.656Z</time></trkpt><trkpt lat="45.7704445" lon="8.4890792"><ele>444.33333333333337</ele><time>2026-05-02T13:14:23.657Z</time></trkpt><trkpt lat="45.7705115" lon="8.4890002"><ele>445.5</ele><time>2026-05-02T13:14:24.658Z</time></trkpt><trkpt lat="45.7705745" lon="8.488924"><ele>446.66666666666663</ele><time>2026-05-02T13:14:25.657Z</time></trkpt><trkpt lat="45.7706378" lon="8.488854"><ele>447.8333333333333</ele><time>2026-05-02T13:14:26.656Z</time></trkpt><trkpt lat="45.7707055" lon="8.4888027"><ele>449.0</ele><time>2026-05-02T13:14:27.657Z</time></trkpt><trkpt lat="45.7707684" lon="8.488742"><ele>449.99999999999994</ele><time>2026-05-02T13:14:28.658Z</time></trkpt><trkpt lat="45.7708446" lon="8.4886833"><ele>451.0</ele><time>2026-05-02T13:14:29.657Z</time></trkpt><trkpt lat="45.7709095" lon="8.4886403"><ele>452.0</ele><time>2026-05-02T13:14:30.657Z</time></trkpt><trkpt lat="45.7709682" lon="8.4885999"><ele>453.0</ele><time>2026-05-02T13:14:31.656Z</time></trkpt><trkpt lat="45.77105" lon="8.4885165"><ele>453.99999999999994</ele><time>2026-05-02T13:14:33.657Z</time></trkpt><trkpt lat="45.7711219" lon="8.4884119"><ele>455.0</ele><time>2026-05-02T13:14:35.657Z</time></trkpt><trkpt lat="45.7711978" lon="8.4882997"><ele>456.3333333333333</ele><time>2026-05-02T13:14:37.658Z</time></trkpt><trkpt lat="45.7712744" lon="8.4882283"><ele>457.66666666666663</ele><time>2026-05-02T13:14:39.658Z</time></trkpt><trkpt lat="45.771391" lon="8.4881996"><ele>459.0</ele><time>2026-05-02T13:14:41.657Z</time></trkpt><trkpt lat="45.7714555" lon="8.4881826"><ele>460.33333333333337</ele><time>2026-05-02T13:14:42.657Z</time></trkpt><trkpt lat="45.7715198" lon="8.488185"><ele>461.6666666666667</ele><time>2026-05-02T13:14:43.657Z</time></trkpt><trkpt lat="45.7716278" lon="8.4882034"><ele>463.0</ele><time>2026-05-02T13:14:45.656Z</time></trkpt><trkpt lat="45.7717202" lon="8.4882298"><ele>463.0</ele><time>2026-05-02T13:14:47.657Z</time></trkpt><trkpt lat="45.7718372" lon="8.4882629"><ele>462.99999999999994</ele><time>2026-05-02T13:14:49.658Z</time></trkpt><trkpt lat="45.7719451" lon="8.4882832"><ele>462.99999999999994</ele><time>2026-05-02T13:14:51.657Z</time></trkpt><trkpt lat="45.7720359" lon="8.4882929"><ele>463.0</ele><time>2026-05-02T13:14:53.658Z</time></trkpt><trkpt lat="45.7721167" lon="8.4883029"><ele>463.0</ele><time>2026-05-02T13:14:55.657Z</time></trkpt><trkpt lat="45.7722095" lon="8.488321"><ele>463.1666666666667</ele><time>2026-05-02T13:14:57.657Z</time></trkpt><trkpt lat="45.7722773" lon="8.4883212"><ele>463.33333333333337</ele><time>2026-05-02T13:14:58.657Z</time></trkpt><trkpt lat="45.7723619" lon="8.4883459"><ele>463.5</ele><time>2026-05-02T13:14:59.657Z</time></trkpt><trkpt lat="45.7724442" lon="8.48838"><ele>463.66666666666663</ele><time>2026-05-02T13:15:00.657Z</time></trkpt><trkpt lat="45.7725224" lon="8.4883933"><ele>463.8333333333333</ele><time>2026-05-02T13:15:01.657Z</time></trkpt><trkpt lat="45.7726113" lon="8.4884059"><ele>464.0</ele><time>2026-05-02T13:15:02.656Z</time></trkpt><trkpt lat="45.7726799" lon="8.4884205"><ele>465.0</ele><time>2026-05-02T13:15:03.657Z</time></trkpt><trkpt lat="45.7728004" lon="8.4884365"><ele>466.0</ele><time>2026-05-02T13:15:05.658Z</time></trkpt><trkpt lat="45.7729158" lon="8.4884189"><ele>467.0</ele><time>2026-05-02T13:15:07.656Z</time></trkpt><trkpt lat="45.7729853" lon="8.488401"><ele>468.0</ele><time>2026-05-02T13:15:08.657Z</time></trkpt><trkpt lat="45.7730531" lon="8.4883912"><ele>469.0</ele><time>2026-05-02T13:15:09.656Z</time></trkpt><trkpt lat="45.7731344" lon="8.4883811"><ele>469.00000000000006</ele><time>2026-05-02T13:15:10.657Z</time></trkpt><trkpt lat="45.7732073" lon="8.4883544"><ele>469.0</ele><time>2026-05-02T13:15:11.657Z</time></trkpt><trkpt lat="45.7732834" lon="8.4883313"><ele>469.0</ele><time>2026-05-02T13:15:12.656Z</time></trkpt><trkpt lat="45.7733585" lon="8.4882959"><ele>469.0</ele><time>2026-05-02T13:15:13.657Z</time></trkpt><trkpt lat="45.7734465" lon="8.4882775"><ele>469.00000000000006</ele><time>2026-05-02T13:15:14.656Z</time></trkpt><trkpt lat="45.7735102" lon="8.4882481"><ele>469.0</ele><time>2026-05-02T13:15:15.658Z</time></trkpt><trkpt lat="45.7736104" lon="8.4882102"><ele>468.79999999999995</ele><time>2026-05-02T13:15:17.656Z</time></trkpt><trkpt lat="45.7737138" lon="8.4881713"><ele>468.59999999999997</ele><time>2026-05-02T13:15:19.656Z</time></trkpt><trkpt lat="45.773814" lon="8.4881285"><ele>468.4</ele><time>2026-05-02T13:15:21.657Z</time></trkpt><trkpt lat="45.7739013" lon="8.4881232"><ele>468.2</ele><time>2026-05-02T13:15:23.656Z</time></trkpt><trkpt lat="45.774017" lon="8.4881928"><ele>468.0</ele><time>2026-05-02T13:15:25.656Z</time></trkpt><trkpt lat="45.7740836" lon="8.4882396"><ele>468.0</ele><time>2026-05-02T13:15:26.656Z</time></trkpt><trkpt lat="45.7741413" lon="8.4882971"><ele>468.0</ele><time>2026-05-02T13:15:27.657Z</time></trkpt><trkpt lat="45.7741899" lon="8.4883691"><ele>468.0</ele><time>2026-05-02T13:15:28.658Z</time></trkpt><trkpt lat="45.7742487" lon="8.488419"><ele>468.0</ele><time>2026-05-02T13:15:29.656Z</time></trkpt><trkpt lat="45.7743656" lon="8.4884429"><ele>468.0</ele><time>2026-05-02T13:15:31.657Z</time></trkpt><trkpt lat="45.774451" lon="8.4884372"><ele>468.0</ele><time>2026-05-02T13:15:32.656Z</time></trkpt><trkpt lat="45.7745327" lon="8.4884326"><ele>468.0</ele><time>2026-05-02T13:15:33.657Z</time></trkpt><trkpt lat="45.7746181" lon="8.4884243"><ele>468.0</ele><time>2026-05-02T13:15:34.656Z</time></trkpt><trkpt lat="45.7747191" lon="8.4884333"><ele>468.0</ele><time>2026-05-02T13:15:35.656Z</time></trkpt><trkpt lat="45.774796" lon="8.488437"><ele>468.0</ele><time>2026-05-02T13:15:36.658Z</time></trkpt><trkpt lat="45.7748614" lon="8.4884244"><ele>468.0</ele><time>2026-05-02T13:15:37.656Z</time></trkpt><trkpt lat="45.7749472" lon="8.4883965"><ele>468.0</ele><time>2026-05-02T13:15:38.657Z</time></trkpt><trkpt lat="45.7750336" lon="8.4883519"><ele>468.0</ele><time>2026-05-02T13:15:39.656Z</time></trkpt><trkpt lat="45.7751124" lon="8.4883013"><ele>468.0</ele><time>2026-05-02T13:15:40.656Z</time></trkpt><trkpt lat="45.7751945" lon="8.4882434"><ele>468.0</ele><time>2026-05-02T13:15:41.658Z</time></trkpt><trkpt lat="45.7752727" lon="8.4881748"><ele>468.0</ele><time>2026-05-02T13:15:42.656Z</time></trkpt><trkpt lat="45.775331" lon="8.4881205"><ele>468.0</ele><time>2026-05-02T13:15:43.656Z</time></trkpt><trkpt lat="45.7753947" lon="8.4880545"><ele>468.0</ele><time>2026-05-02T13:15:44.656Z</time></trkpt><trkpt lat="45.7754488" lon="8.4879919"><ele>469.8333333333333</ele><time>2026-05-02T13:15:45.657Z</time></trkpt><trkpt lat="45.7755035" lon="8.4878754"><ele>471.66666666666663</ele><time>2026-05-02T13:15:47.657Z</time></trkpt><trkpt lat="45.7755236" lon="8.4877843"><ele>473.5</ele><time>2026-05-02T13:15:50.658Z</time></trkpt><trkpt lat="45.7755376" lon="8.487689"><ele>475.3333333333333</ele><time>2026-05-02T13:16:09.656Z</time></trkpt><trkpt lat="45.7754726" lon="8.4876472"><ele>477.16666666666663</ele><time>2026-05-02T13:17:42.656Z</time></trkpt><trkpt lat="45.7753619" lon="8.4875541"><ele>479.0</ele><time>2026-05-02T13:17:44.656Z</time></trkpt><trkpt lat="45.775272" lon="8.4875012"><ele>475.75</ele><time>2026-05-02T13:17:45.656Z</time></trkpt><trkpt lat="45.7751753" lon="8.4874467"><ele>472.5</ele><time>2026-05-02T13:17:46.656Z</time></trkpt><trkpt lat="45.7750597" lon="8.487391"><ele>469.25</ele><time>2026-05-02T13:17:47.656Z</time></trkpt><trkpt lat="45.7749411" lon="8.487337"><ele>466.0</ele><time>2026-05-02T13:17:48.655Z</time></trkpt><trkpt lat="45.7748153" lon="8.4872782"><ele>466.0</ele><time>2026-05-02T13:17:49.656Z</time></trkpt><trkpt lat="45.7746891" lon="8.4872198"><ele>466.0</ele><time>2026-05-02T13:17:50.656Z</time></trkpt><trkpt lat="45.7745631" lon="8.4871645"><ele>466.0</ele><time>2026-05-02T13:17:51.656Z</time></trkpt><trkpt lat="45.7744332" lon="8.4871125"><ele>466.0</ele><time>2026-05-02T13:17:52.655Z</time></trkpt><trkpt lat="45.7743001" lon="8.4870588"><ele>467.25</ele><time>2026-05-02T13:17:53.656Z</time></trkpt><trkpt lat="45.7741736" lon="8.4870068"><ele>468.5</ele><time>2026-05-02T13:17:54.655Z</time></trkpt><trkpt lat="45.7740546" lon="8.4869596"><ele>469.75</ele><time>2026-05-02T13:17:55.656Z</time></trkpt><trkpt lat="45.7739375" lon="8.4869187"><ele>471.0</ele><time>2026-05-02T13:17:56.656Z</time></trkpt><trkpt lat="45.7738264" lon="8.4868741"><ele>471.0</ele><time>2026-05-02T13:17:57.656Z</time></trkpt><trkpt lat="45.7737157" lon="8.4868462"><ele>471.0</ele><time>2026-05-02T13:17:58.657Z</time></trkpt><trkpt lat="45.7736102" lon="8.4868194"><ele>471.0</ele><time>2026-05-02T13:17:59.656Z</time></trkpt><trkpt lat="45.7734956" lon="8.4868113"><ele>471.0</ele><time>2026-05-02T13:18:00.655Z</time></trkpt><trkpt lat="45.7733847" lon="8.4867868"><ele>471.0</ele><time>2026-05-02T13:18:01.657Z</time></trkpt><trkpt lat="45.7732683" lon="8.4867734"><ele>469.20000000000005</ele><time>2026-05-02T13:18:02.656Z</time></trkpt><trkpt lat="45.7731513" lon="8.4867599"><ele>467.40000000000003</ele><time>2026-05-02T13:18:03.656Z</time></trkpt><trkpt lat="45.7730376" lon="8.4867465"><ele>465.6</ele><time>2026-05-02T13:18:04.656Z</time></trkpt><trkpt lat="45.7729367" lon="8.486726"><ele>463.8</ele><time>2026-05-02T13:18:05.658Z</time></trkpt><trkpt lat="45.772834" lon="8.4866771"><ele>462.0</ele><time>2026-05-02T13:18:06.656Z</time></trkpt><trkpt lat="45.7727271" lon="8.4866147"><ele>463.0</ele><time>2026-05-02T13:18:07.658Z</time></trkpt><trkpt lat="45.7726095" lon="8.4865365"><ele>464.0</ele><time>2026-05-02T13:18:08.657Z</time></trkpt><trkpt lat="45.7725044" lon="8.4864361"><ele>465.0</ele><time>2026-05-02T13:18:09.656Z</time></trkpt><trkpt lat="45.7723985" lon="8.4863221"><ele>466.0</ele><time>2026-05-02T13:18:10.656Z</time></trkpt><trkpt lat="45.7722936" lon="8.4861919"><ele>466.0</ele><time>2026-05-02T13:18:11.655Z</time></trkpt><trkpt lat="45.7721832" lon="8.4860707"><ele>466.0</ele><time>2026-05-02T13:18:12.657Z</time></trkpt><trkpt lat="45.7720576" lon="8.4859463"><ele>466.0</ele><time>2026-05-02T13:18:13.655Z</time></trkpt><trkpt lat="45.7719228" lon="8.4858271"><ele>461.0</ele><time>2026-05-02T13:18:14.655Z</time></trkpt><trkpt lat="45.7717694" lon="8.4857113"><ele>456.0</ele><time>2026-05-02T13:18:15.656Z</time></trkpt><trkpt lat="45.7716193" lon="8.4855894"><ele>451.0</ele><time>2026-05-02T13:18:16.656Z</time></trkpt><trkpt lat="45.7714731" lon="8.4854727"><ele>453.6666666666667</ele><time>2026-05-02T13:18:17.655Z</time></trkpt><trkpt lat="45.7713417" lon="8.485355"><ele>456.33333333333337</ele><time>2026-05-02T13:18:18.656Z</time></trkpt><trkpt lat="45.771208" lon="8.4852465"><ele>459.0</ele><time>2026-05-02T13:18:19.656Z</time></trkpt><trkpt lat="45.7710668" lon="8.485143"><ele>453.33333333333337</ele><time>2026-05-02T13:18:20.657Z</time></trkpt><trkpt lat="45.7709182" lon="8.4850463"><ele>447.6666666666667</ele><time>2026-05-02T13:18:21.656Z</time></trkpt><trkpt lat="45.7707611" lon="8.4849597"><ele>442.0</ele><time>2026-05-02T13:18:22.655Z</time></trkpt><trkpt lat="45.7706104" lon="8.4848891"><ele>442.0</ele><time>2026-05-02T13:18:23.655Z</time></trkpt><trkpt lat="45.7704689" lon="8.484816"><ele>442.0</ele><time>2026-05-02T13:18:24.656Z</time></trkpt><trkpt lat="45.7703421" lon="8.4847586"><ele>442.0</ele><time>2026-05-02T13:18:25.655Z</time></trkpt><trkpt lat="45.7702462" lon="8.4847148"><ele>442.0</ele><time>2026-05-02T13:18:26.656Z</time></trkpt><trkpt lat="45.7701729" lon="8.4846851"><ele>441.5714285714286</ele><time>2026-05-02T13:18:27.655Z</time></trkpt><trkpt lat="45.7701001" lon="8.4846655"><ele>441.14285714285717</ele><time>2026-05-02T13:18:29.657Z</time></trkpt><trkpt lat="45.7701059" lon="8.4845591"><ele>440.7142857142857</ele><time>2026-05-02T13:18:46.656Z</time></trkpt><trkpt lat="45.7701582" lon="8.4844852"><ele>440.28571428571433</ele><time>2026-05-02T13:18:48.657Z</time></trkpt><trkpt lat="45.7701995" lon="8.4844053"><ele>439.85714285714283</ele><time>2026-05-02T13:18:49.656Z</time></trkpt><trkpt lat="45.7702342" lon="8.4843252"><ele>439.42857142857144</ele><time>2026-05-02T13:18:50.656Z</time></trkpt><trkpt lat="45.770259" lon="8.4842288"><ele>439.0</ele><time>2026-05-02T13:18:51.655Z</time></trkpt><trkpt lat="45.7702905" lon="8.4841379"><ele>440.6666666666667</ele><time>2026-05-02T13:18:52.656Z</time></trkpt><trkpt lat="45.7703217" lon="8.4840073"><ele>442.33333333333337</ele><time>2026-05-02T13:18:53.655Z</time></trkpt><trkpt lat="45.7703575" lon="8.4838782"><ele>444.0</ele><time>2026-05-02T13:18:54.656Z</time></trkpt><trkpt lat="45.7703801" lon="8.4837547"><ele>445.66666666666663</ele><time>2026-05-02T13:18:55.657Z</time></trkpt><trkpt lat="45.7704012" lon="8.4836551"><ele>447.3333333333333</ele><time>2026-05-02T13:18:56.656Z</time></trkpt><trkpt lat="45.7704112" lon="8.4835619"><ele>449.0</ele><time>2026-05-02T13:18:57.656Z</time></trkpt><trkpt lat="45.7704277" lon="8.4834318"><ele>449.8333333333333</ele><time>2026-05-02T13:18:59.657Z</time></trkpt><trkpt lat="45.7704178" lon="8.4833041"><ele>450.66666666666663</ele><time>2026-05-02T13:19:45.656Z</time></trkpt><trkpt lat="45.7703605" lon="8.4832181"><ele>451.5</ele><time>2026-05-02T13:19:47.656Z</time></trkpt><trkpt lat="45.7702925" lon="8.4830788"><ele>452.33333333333337</ele><time>2026-05-02T13:19:49.655Z</time></trkpt><trkpt lat="45.7702615" lon="8.4829984"><ele>453.1666666666667</ele><time>2026-05-02T13:19:50.655Z</time></trkpt><trkpt lat="45.7702294" lon="8.4829066"><ele>454.0</ele><time>2026-05-02T13:19:51.656Z</time></trkpt><trkpt lat="45.7701983" lon="8.4828213"><ele>451.79999999999995</ele><time>2026-05-02T13:19:52.655Z</time></trkpt><trkpt lat="45.7701718" lon="8.4827276"><ele>449.59999999999997</ele><time>2026-05-02T13:19:53.655Z</time></trkpt><trkpt lat="45.7701332" lon="8.4825485"><ele>447.4</ele><time>2026-05-02T13:19:55.656Z</time></trkpt><trkpt lat="45.7701348" lon="8.4824422"><ele>445.2</ele><time>2026-05-02T13:19:56.655Z</time></trkpt><trkpt lat="45.7701591" lon="8.482305"><ele>443.0</ele><time>2026-05-02T13:19:57.655Z</time></trkpt><trkpt lat="45.77018" lon="8.4821841"><ele>443.0</ele><time>2026-05-02T13:19:58.656Z</time></trkpt><trkpt lat="45.770207" lon="8.4820386"><ele>442.99999999999994</ele><time>2026-05-02T13:20:00.656Z</time></trkpt><trkpt lat="45.7702108" lon="8.4818969"><ele>442.99999999999994</ele><time>2026-05-02T13:20:03.655Z</time></trkpt><trkpt lat="45.7701892" lon="8.4817579"><ele>443.0</ele><time>2026-05-02T13:20:05.656Z</time></trkpt><trkpt lat="45.770133" lon="8.4815984"><ele>443.0</ele><time>2026-05-02T13:20:07.655Z</time></trkpt><trkpt lat="45.7700563" lon="8.4814647"><ele>442.99999999999994</ele><time>2026-05-02T13:20:09.657Z</time></trkpt><trkpt lat="45.7700072" lon="8.4814003"><ele>443.0</ele><time>2026-05-02T13:20:10.656Z</time></trkpt><trkpt lat="45.7699191" lon="8.4813013"><ele>443.0</ele><time>2026-05-02T13:20:12.656Z</time></trkpt><trkpt lat="45.7698594" lon="8.4811863"><ele>443.0</ele><time>2026-05-02T13:20:14.655Z</time></trkpt><trkpt lat="45.7698363" lon="8.4810917"><ele>442.99999999999994</ele><time>2026-05-02T13:20:15.656Z</time></trkpt><trkpt lat="45.7698127" lon="8.480994"><ele>443.0</ele><time>2026-05-02T13:20:16.656Z</time></trkpt><trkpt lat="45.7697948" lon="8.4808748"><ele>443.3333333333333</ele><time>2026-05-02T13:20:17.656Z</time></trkpt><trkpt lat="45.7697598" lon="8.4807506"><ele>443.66666666666663</ele><time>2026-05-02T13:20:18.656Z</time></trkpt><trkpt lat="45.7697276" lon="8.4806346"><ele>444.0</ele><time>2026-05-02T13:20:19.655Z</time></trkpt><trkpt lat="45.7696909" lon="8.4805192"><ele>444.33333333333337</ele><time>2026-05-02T13:20:20.655Z</time></trkpt><trkpt lat="45.7696692" lon="8.4803999"><ele>444.6666666666667</ele><time>2026-05-02T13:20:21.655Z</time></trkpt><trkpt lat="45.7696375" lon="8.4802982"><ele>445.0</ele><time>2026-05-02T13:20:22.655Z</time></trkpt><trkpt lat="45.7696218" lon="8.4801922"><ele>446.1666666666667</ele><time>2026-05-02T13:20:23.656Z</time></trkpt><trkpt lat="45.769597" lon="8.4800889"><ele>447.33333333333337</ele><time>2026-05-02T13:20:24.657Z</time></trkpt><trkpt lat="45.7695718" lon="8.4800018"><ele>448.5</ele><time>2026-05-02T13:20:25.655Z</time></trkpt><trkpt lat="45.7695458" lon="8.4799125"><ele>449.66666666666663</ele><time>2026-05-02T13:20:26.655Z</time></trkpt><trkpt lat="45.7694991" lon="8.4797514"><ele>450.8333333333333</ele><time>2026-05-02T13:20:28.656Z</time></trkpt><trkpt lat="45.7694566" lon="8.479681"><ele>452.0</ele><time>2026-05-02T13:20:29.655Z</time></trkpt><trkpt lat="45.7693755" lon="8.4795773"><ele>451.0</ele><time>2026-05-02T13:20:31.656Z</time></trkpt><trkpt lat="45.769293" lon="8.4794654"><ele>450.0</ele><time>2026-05-02T13:20:33.656Z</time></trkpt><trkpt lat="45.7692553" lon="8.4793915"><ele>449.0</ele><time>2026-05-02T13:20:34.655Z</time></trkpt><trkpt lat="45.7692325" lon="8.4793034"><ele>448.0</ele><time>2026-05-02T13:20:35.655Z</time></trkpt><trkpt lat="45.7692024" lon="8.4792166"><ele>447.0</ele><time>2026-05-02T13:20:36.656Z</time></trkpt><trkpt lat="45.7691715" lon="8.4791317"><ele>446.0</ele><time>2026-05-02T13:20:37.656Z</time></trkpt><trkpt lat="45.7691249" lon="8.4790542"><ele>445.0</ele><time>2026-05-02T13:20:38.656Z</time></trkpt><trkpt lat="45.7690875" lon="8.4789751"><ele>445.00000000000006</ele><time>2026-05-02T13:20:39.657Z</time></trkpt><trkpt lat="45.7690601" lon="8.4788883"><ele>445.0</ele><time>2026-05-02T13:20:40.656Z</time></trkpt><trkpt lat="45.769021" lon="8.4788125"><ele>445.0</ele><time>2026-05-02T13:20:41.655Z</time></trkpt><trkpt lat="45.7689857" lon="8.4787247"><ele>445.0</ele><time>2026-05-02T13:20:42.656Z</time></trkpt><trkpt lat="45.7689101" lon="8.478584"><ele>445.00000000000006</ele><time>2026-05-02T13:20:44.656Z</time></trkpt><trkpt lat="45.7688554" lon="8.4784394"><ele>445.0</ele><time>2026-05-02T13:20:46.655Z</time></trkpt><trkpt lat="45.7688151" lon="8.4783584"><ele>446.00000000000006</ele><time>2026-05-02T13:20:47.656Z</time></trkpt><trkpt lat="45.7687653" lon="8.4782516"><ele>447.0</ele><time>2026-05-02T13:20:49.657Z</time></trkpt><trkpt lat="45.7686882" lon="8.4781509"><ele>448.0</ele><time>2026-05-02T13:20:51.656Z</time></trkpt><trkpt lat="45.7686043" lon="8.4780939"><ele>449.0</ele><time>2026-05-02T13:20:53.657Z</time></trkpt><trkpt lat="45.7685103" lon="8.4780657"><ele>450.00000000000006</ele><time>2026-05-02T13:20:55.656Z</time></trkpt><trkpt lat="45.7684454" lon="8.4780582"><ele>451.0</ele><time>2026-05-02T13:20:56.656Z</time></trkpt><trkpt lat="45.7683578" lon="8.4780337"><ele>448.4</ele><time>2026-05-02T13:20:58.657Z</time></trkpt><trkpt lat="45.7683446" lon="8.4781638"><ele>445.8</ele><time>2026-05-02T13:21:29.655Z</time></trkpt><trkpt lat="45.7683147" lon="8.4782992"><ele>443.19999999999993</ele><time>2026-05-02T13:21:31.656Z</time></trkpt><trkpt lat="45.7683071" lon="8.478389"><ele>440.59999999999997</ele><time>2026-05-02T13:21:32.656Z</time></trkpt><trkpt lat="45.7683048" lon="8.4785326"><ele>438.0</ele><time>2026-05-02T13:21:34.655Z</time></trkpt><trkpt lat="45.7683053" lon="8.4787017"><ele>438.4</ele><time>2026-05-02T13:21:36.656Z</time></trkpt><trkpt lat="45.768277" lon="8.4788558"><ele>438.79999999999995</ele><time>2026-05-02T13:21:38.655Z</time></trkpt><trkpt lat="45.7681945" lon="8.4790077"><ele>439.2</ele><time>2026-05-02T13:21:40.655Z</time></trkpt><trkpt lat="45.7681315" lon="8.4790812"><ele>439.6</ele><time>2026-05-02T13:21:41.655Z</time></trkpt><trkpt lat="45.7680606" lon="8.4791348"><ele>440.0</ele><time>2026-05-02T13:21:42.655Z</time></trkpt><trkpt lat="45.7679878" lon="8.4791985"><ele>439.99999999999994</ele><time>2026-05-02T13:21:44.656Z</time></trkpt><trkpt lat="45.7678998" lon="8.479245"><ele>440.0</ele><time>2026-05-02T13:21:53.656Z</time></trkpt><trkpt lat="45.7678079" lon="8.4792727"><ele>440.0</ele><time>2026-05-02T13:21:55.657Z</time></trkpt><trkpt lat="45.7677257" lon="8.4793148"><ele>440.0</ele><time>2026-05-02T13:21:57.657Z</time></trkpt><trkpt lat="45.7676472" lon="8.479327"><ele>439.99999999999994</ele><time>2026-05-02T13:21:59.655Z</time></trkpt><trkpt lat="45.7675763" lon="8.4793574"><ele>440.0</ele><time>2026-05-02T13:22:01.656Z</time></trkpt><trkpt lat="45.7675029" lon="8.4794246"><ele>439.49999999999994</ele><time>2026-05-02T13:22:04.657Z</time></trkpt><trkpt lat="45.7674324" lon="8.4795162"><ele>439.0</ele><time>2026-05-02T13:22:07.655Z</time></trkpt><trkpt lat="45.767403" lon="8.4796172"><ele>438.5</ele><time>2026-05-02T13:22:09.657Z</time></trkpt><trkpt lat="45.7673617" lon="8.4797462"><ele>438.0</ele><time>2026-05-02T13:22:11.655Z</time></trkpt><trkpt lat="45.7673182" lon="8.4798448"><ele>437.49999999999994</ele><time>2026-05-02T13:22:13.656Z</time></trkpt><trkpt lat="45.7672701" lon="8.4799362"><ele>437.0</ele><time>2026-05-02T13:22:16.655Z</time></trkpt><trkpt lat="45.767336" lon="8.4799062"><ele>437.0</ele><time>2026-05-02T13:22:32.656Z</time></trkpt><trkpt lat="45.767401" lon="8.4797656"><ele>437.00000000000006</ele><time>2026-05-02T13:22:34.655Z</time></trkpt><trkpt lat="45.7674393" lon="8.4796077"><ele>437.00000000000006</ele><time>2026-05-02T13:22:36.656Z</time></trkpt><trkpt lat="45.7674685" lon="8.4794673"><ele>437.0</ele><time>2026-05-02T13:22:38.656Z</time></trkpt><trkpt lat="45.7675212" lon="8.4793881"><ele>437.0</ele><time>2026-05-02T13:22:40.656Z</time></trkpt><trkpt lat="45.7675946" lon="8.4793391"><ele>437.49999999999994</ele><time>2026-05-02T13:22:42.656Z</time></trkpt><trkpt lat="45.7677072" lon="8.4792822"><ele>438.0</ele><time>2026-05-02T13:22:44.656Z</time></trkpt><trkpt lat="45.7677801" lon="8.4792549"><ele>438.5</ele><time>2026-05-02T13:22:45.656Z</time></trkpt><trkpt lat="45.7678459" lon="8.479233"><ele>439.0</ele><time>2026-05-02T13:22:46.656Z</time></trkpt><trkpt lat="45.7679526" lon="8.4792099"><ele>439.49999999999994</ele><time>2026-05-02T13:22:48.655Z</time></trkpt><trkpt lat="45.7680222" lon="8.4791732"><ele>440.0</ele><time>2026-05-02T13:22:51.656Z</time></trkpt><trkpt lat="45.7680739" lon="8.4792421"><ele>439.99999999999994</ele><time>2026-05-02T13:22:58.656Z</time></trkpt><trkpt lat="45.7681235" lon="8.4793231"><ele>440.0</ele><time>2026-05-02T13:23:00.656Z</time></trkpt><trkpt lat="45.7681675" lon="8.4794039"><ele>440.0</ele><time>2026-05-02T13:23:02.655Z</time></trkpt><trkpt lat="45.7682045" lon="8.4794865"><ele>440.0</ele><time>2026-05-02T13:23:13.655Z</time></trkpt><trkpt lat="45.7682536" lon="8.4795968"><ele>439.99999999999994</ele><time>2026-05-02T13:23:16.656Z</time></trkpt><trkpt lat="45.7683129" lon="8.4796706"><ele>440.0</ele><time>2026-05-02T13:23:18.656Z</time></trkpt><trkpt lat="45.7683733" lon="8.4797063"><ele>440.66666666666663</ele><time>2026-05-02T13:23:20.656Z</time></trkpt><trkpt lat="45.7684228" lon="8.4797707"><ele>441.3333333333333</ele><time>2026-05-02T13:23:22.655Z</time></trkpt><trkpt lat="45.7684894" lon="8.479886"><ele>442.0</ele><time>2026-05-02T13:23:24.655Z</time></trkpt><trkpt lat="45.7685342" lon="8.4799688"><ele>442.66666666666663</ele><time>2026-05-02T13:23:26.656Z</time></trkpt><trkpt lat="45.7685821" lon="8.4800728"><ele>443.3333333333333</ele><time>2026-05-02T13:23:29.655Z</time></trkpt><trkpt lat="45.7686349" lon="8.4801619"><ele>444.0</ele><time>2026-05-02T13:23:59.655Z</time></trkpt><trkpt lat="45.7686955" lon="8.4802962"><ele>444.0</ele><time>2026-05-02T13:24:02.655Z</time></trkpt><trkpt lat="45.7687527" lon="8.4804286"><ele>444.0</ele><time>2026-05-02T13:24:04.656Z</time></trkpt><trkpt lat="45.7688106" lon="8.4805422"><ele>444.0</ele><time>2026-05-02T13:24:06.655Z</time></trkpt><trkpt lat="45.7688453" lon="8.4806629"><ele>444.0</ele><time>2026-05-02T13:24:09.655Z</time></trkpt><trkpt lat="45.7688854" lon="8.4807953"><ele>444.0</ele><time>2026-05-02T13:24:12.656Z</time></trkpt><trkpt lat="45.7689255" lon="8.4808983"><ele>444.3333333333333</ele><time>2026-05-02T13:24:14.656Z</time></trkpt><trkpt lat="45.7689471" lon="8.4810063"><ele>444.66666666666663</ele><time>2026-05-02T13:24:16.656Z</time></trkpt><trkpt lat="45.7689525" lon="8.4811286"><ele>445.0</ele><time>2026-05-02T13:24:18.655Z</time></trkpt><trkpt lat="45.7689262" lon="8.481259"><ele>445.3333333333333</ele><time>2026-05-02T13:24:20.655Z</time></trkpt><trkpt lat="45.7688784" lon="8.4813683"><ele>445.66666666666663</ele><time>2026-05-02T13:24:22.655Z</time></trkpt><trkpt lat="45.7688154" lon="8.4814453"><ele>446.0</ele><time>2026-05-02T13:24:33.655Z</time></trkpt><trkpt lat="45.7688236" lon="8.4815957"><ele>446.2857142857143</ele><time>2026-05-02T13:24:36.656Z</time></trkpt><trkpt lat="45.7687607" lon="8.4816535"><ele>446.57142857142856</ele><time>2026-05-02T13:24:38.654Z</time></trkpt><trkpt lat="45.7686885" lon="8.4816683"><ele>446.8571428571429</ele><time>2026-05-02T13:24:40.655Z</time></trkpt><trkpt lat="45.7686204" lon="8.4817028"><ele>447.1428571428571</ele><time>2026-05-02T13:24:42.654Z</time></trkpt><trkpt lat="45.7685715" lon="8.4817743"><ele>447.42857142857144</ele><time>2026-05-02T13:24:44.654Z</time></trkpt><trkpt lat="45.7685494" lon="8.4818768"><ele>447.7142857142857</ele><time>2026-05-02T13:24:46.654Z</time></trkpt><trkpt lat="45.7685474" lon="8.4819882"><ele>448.0</ele><time>2026-05-02T13:24:48.654Z</time></trkpt><trkpt lat="45.7685478" lon="8.482117"><ele>448.50000000000006</ele><time>2026-05-02T13:24:50.655Z</time></trkpt><trkpt lat="45.7685217" lon="8.4822224"><ele>449.0</ele><time>2026-05-02T13:24:52.656Z</time></trkpt><trkpt lat="45.7684452" lon="8.4823096"><ele>449.5</ele><time>2026-05-02T13:24:54.654Z</time></trkpt><trkpt lat="45.7683795" lon="8.4823506"><ele>450.0</ele><time>2026-05-02T13:24:56.654Z</time></trkpt><trkpt lat="45.7683163" lon="8.4823808"><ele>450.50000000000006</ele><time>2026-05-02T13:24:58.655Z</time></trkpt><trkpt lat="45.7682366" lon="8.4824251"><ele>451.0</ele><time>2026-05-02T13:25:01.655Z</time></trkpt><trkpt lat="45.7681567" lon="8.4824962"><ele>451.00000000000006</ele><time>2026-05-02T13:25:04.654Z</time></trkpt><trkpt lat="45.7681083" lon="8.4825849"><ele>451.0</ele><time>2026-05-02T13:25:06.655Z</time></trkpt><trkpt lat="45.7680653" lon="8.4826911"><ele>451.0</ele><time>2026-05-02T13:25:08.654Z</time></trkpt><trkpt lat="45.7680336" lon="8.4827917"><ele>451.0</ele><time>2026-05-02T13:25:10.654Z</time></trkpt><trkpt lat="45.7680031" lon="8.4828843"><ele>451.00000000000006</ele><time>2026-05-02T13:25:12.654Z</time></trkpt><trkpt lat="45.76798" lon="8.4829824"><ele>451.0</ele><time>2026-05-02T13:25:14.655Z</time></trkpt><trkpt lat="45.7679762" lon="8.4830879"><ele>450.00000000000006</ele><time>2026-05-02T13:25:16.654Z</time></trkpt><trkpt lat="45.7680184" lon="8.4832019"><ele>449.0</ele><time>2026-05-02T13:25:18.654Z</time></trkpt><trkpt lat="45.768061" lon="8.4833011"><ele>448.0</ele><time>2026-05-02T13:25:20.655Z</time></trkpt><trkpt lat="45.7681005" lon="8.4833857"><ele>447.0</ele><time>2026-05-02T13:25:22.654Z</time></trkpt><trkpt lat="45.7681422" lon="8.4834809"><ele>446.00000000000006</ele><time>2026-05-02T13:25:24.654Z</time></trkpt><trkpt lat="45.768191" lon="8.4835993"><ele>445.0</ele><time>2026-05-02T13:25:26.654Z</time></trkpt><trkpt lat="45.7682399" lon="8.4837382"><ele>444.1666666666667</ele><time>2026-05-02T13:25:28.654Z</time></trkpt><trkpt lat="45.7682696" lon="8.4838868"><ele>443.33333333333337</ele><time>2026-05-02T13:25:30.654Z</time></trkpt><trkpt lat="45.7682993" lon="8.4839701"><ele>442.5</ele><time>2026-05-02T13:25:31.654Z</time></trkpt><trkpt lat="45.7683228" lon="8.4841263"><ele>441.66666666666663</ele><time>2026-05-02T13:25:33.656Z</time></trkpt><trkpt lat="45.7683256" lon="8.484233"><ele>440.8333333333333</ele><time>2026-05-02T13:25:35.655Z</time></trkpt><trkpt lat="45.7682924" lon="8.4843227"><ele>440.0</ele><time>2026-05-02T13:25:37.655Z</time></trkpt><trkpt lat="45.7682189" lon="8.484394"><ele>439.99999999999994</ele><time>2026-05-02T13:25:39.656Z</time></trkpt><trkpt lat="45.7681391" lon="8.4844602"><ele>440.0</ele><time>2026-05-02T13:25:40.655Z</time></trkpt><trkpt lat="45.768061" lon="8.4845283"><ele>440.0</ele><time>2026-05-02T13:25:41.654Z</time></trkpt><trkpt lat="45.7679869" lon="8.4845958"><ele>440.0</ele><time>2026-05-02T13:25:42.654Z</time></trkpt><trkpt lat="45.7679087" lon="8.4846663"><ele>439.99999999999994</ele><time>2026-05-02T13:25:43.655Z</time></trkpt><trkpt lat="45.7678498" lon="8.4847381"><ele>440.0</ele><time>2026-05-02T13:25:44.654Z</time></trkpt><trkpt lat="45.7677868" lon="8.4848025"><ele>438.71428571428567</ele><time>2026-05-02T13:25:45.655Z</time></trkpt><trkpt lat="45.7677293" lon="8.4848534"><ele>437.42857142857144</ele><time>2026-05-02T13:25:46.654Z</time></trkpt><trkpt lat="45.7676708" lon="8.4848938"><ele>436.1428571428571</ele><time>2026-05-02T13:25:47.655Z</time></trkpt><trkpt lat="45.7676146" lon="8.4849399"><ele>434.85714285714283</ele><time>2026-05-02T13:25:48.654Z</time></trkpt><trkpt lat="45.7675578" lon="8.4849828"><ele>433.57142857142856</ele><time>2026-05-02T13:25:49.656Z</time></trkpt><trkpt lat="45.7675012" lon="8.4850265"><ele>432.2857142857143</ele><time>2026-05-02T13:25:50.656Z</time></trkpt><trkpt lat="45.7673998" lon="8.4851005"><ele>431.0</ele><time>2026-05-02T13:25:52.655Z</time></trkpt><trkpt lat="45.7673258" lon="8.4851546"><ele>430.4</ele><time>2026-05-02T13:25:59.654Z</time></trkpt><trkpt lat="45.7672701" lon="8.4852152"><ele>429.8</ele><time>2026-05-02T13:26:00.655Z</time></trkpt><trkpt lat="45.7672155" lon="8.4852679"><ele>429.19999999999993</ele><time>2026-05-02T13:26:01.655Z</time></trkpt><trkpt lat="45.7671171" lon="8.4853766"><ele>428.59999999999997</ele><time>2026-05-02T13:26:03.654Z</time></trkpt><trkpt lat="45.7670138" lon="8.4854659"><ele>428.0</ele><time>2026-05-02T13:26:05.655Z</time></trkpt><trkpt lat="45.7669313" lon="8.4855428"><ele>428.0</ele><time>2026-05-02T13:26:07.654Z</time></trkpt><trkpt lat="45.7668654" lon="8.4855572"><ele>427.99999999999994</ele><time>2026-05-02T13:26:10.655Z</time></trkpt><trkpt lat="45.7669299" lon="8.4855626"><ele>427.99999999999994</ele><time>2026-05-02T13:26:23.655Z</time></trkpt><trkpt lat="45.7670399" lon="8.4854648"><ele>428.0</ele><time>2026-05-02T13:26:25.655Z</time></trkpt><trkpt lat="45.7671219" lon="8.4853848"><ele>428.0</ele><time>2026-05-02T13:26:26.654Z</time></trkpt><trkpt lat="45.7672005" lon="8.4853034"><ele>427.99999999999994</ele><time>2026-05-02T13:26:27.655Z</time></trkpt><trkpt lat="45.7672876" lon="8.4852139"><ele>428.0</ele><time>2026-05-02T13:26:28.655Z</time></trkpt><trkpt lat="45.7673675" lon="8.4851429"><ele>428.0</ele><time>2026-05-02T13:26:29.655Z</time></trkpt><trkpt lat="45.7674392" lon="8.4850828"><ele>428.0</ele><time>2026-05-02T13:26:30.657Z</time></trkpt><trkpt lat="45.7675063" lon="8.4850267"><ele>427.99999999999994</ele><time>2026-05-02T13:26:31.655Z</time></trkpt><trkpt lat="45.7675696" lon="8.4849767"><ele>428.0</ele><time>2026-05-02T13:26:32.656Z</time></trkpt><trkpt lat="45.7676284" lon="8.4849307"><ele>428.59999999999997</ele><time>2026-05-02T13:26:33.654Z</time></trkpt><trkpt lat="45.767726" lon="8.4848528"><ele>429.19999999999993</ele><time>2026-05-02T13:26:35.654Z</time></trkpt><trkpt lat="45.7678202" lon="8.4847708"><ele>429.8</ele><time>2026-05-02T13:26:37.654Z</time></trkpt><trkpt lat="45.767879" lon="8.4847097"><ele>430.4</ele><time>2026-05-02T13:26:38.655Z</time></trkpt><trkpt lat="45.7679398" lon="8.4846532"><ele>431.0</ele><time>2026-05-02T13:26:39.655Z</time></trkpt><trkpt lat="45.7680084" lon="8.4845853"><ele>432.49999999999994</ele><time>2026-05-02T13:26:40.655Z</time></trkpt><trkpt lat="45.768091" lon="8.484513"><ele>434.0</ele><time>2026-05-02T13:26:41.656Z</time></trkpt><trkpt lat="45.7681561" lon="8.4844563"><ele>435.5</ele><time>2026-05-02T13:26:42.654Z</time></trkpt><trkpt lat="45.7682211" lon="8.484407"><ele>437.0</ele><time>2026-05-02T13:26:43.655Z</time></trkpt><trkpt lat="45.768302" lon="8.4843351"><ele>438.49999999999994</ele><time>2026-05-02T13:26:45.655Z</time></trkpt><trkpt lat="45.7683325" lon="8.484233"><ele>440.0</ele><time>2026-05-02T13:26:47.656Z</time></trkpt><trkpt lat="45.7683302" lon="8.4840788"><ele>439.99999999999994</ele><time>2026-05-02T13:26:49.654Z</time></trkpt><trkpt lat="45.768311" lon="8.4839844"><ele>440.0</ele><time>2026-05-02T13:26:50.656Z</time></trkpt><trkpt lat="45.7683004" lon="8.4838895"><ele>440.0</ele><time>2026-05-02T13:26:51.655Z</time></trkpt><trkpt lat="45.768265" lon="8.4837837"><ele>440.0</ele><time>2026-05-02T13:26:52.654Z</time></trkpt><trkpt lat="45.768228" lon="8.4836809"><ele>439.99999999999994</ele><time>2026-05-02T13:26:53.655Z</time></trkpt><trkpt lat="45.7681912" lon="8.4835781"><ele>440.0</ele><time>2026-05-02T13:26:54.656Z</time></trkpt><trkpt lat="45.7681535" lon="8.4834745"><ele>440.8333333333333</ele><time>2026-05-02T13:26:55.654Z</time></trkpt><trkpt lat="45.7681079" lon="8.4833729"><ele>441.66666666666663</ele><time>2026-05-02T13:26:56.655Z</time></trkpt><trkpt lat="45.7680744" lon="8.4832912"><ele>442.5</ele><time>2026-05-02T13:26:57.654Z</time></trkpt><trkpt lat="45.7680413" lon="8.4832113"><ele>443.33333333333337</ele><time>2026-05-02T13:26:58.654Z</time></trkpt><trkpt lat="45.768008" lon="8.4830735"><ele>444.1666666666667</ele><time>2026-05-02T13:27:00.654Z</time></trkpt><trkpt lat="45.7680075" lon="8.4829406"><ele>445.0</ele><time>2026-05-02T13:27:02.654Z</time></trkpt><trkpt lat="45.7680428" lon="8.482821"><ele>446.2</ele><time>2026-05-02T13:27:04.654Z</time></trkpt><trkpt lat="45.7680938" lon="8.4826707"><ele>447.4</ele><time>2026-05-02T13:27:06.654Z</time></trkpt><trkpt lat="45.7681543" lon="8.4825255"><ele>448.6</ele><time>2026-05-02T13:27:08.657Z</time></trkpt><trkpt lat="45.7682389" lon="8.4824377"><ele>449.8</ele><time>2026-05-02T13:27:10.655Z</time></trkpt><trkpt lat="45.7683324" lon="8.4823724"><ele>451.0</ele><time>2026-05-02T13:27:12.656Z</time></trkpt><trkpt lat="45.7684323" lon="8.4823229"><ele>451.00000000000006</ele><time>2026-05-02T13:27:14.655Z</time></trkpt><trkpt lat="45.7685048" lon="8.4822494"><ele>451.0</ele><time>2026-05-02T13:27:16.655Z</time></trkpt><trkpt lat="45.7685332" lon="8.4821409"><ele>451.0</ele><time>2026-05-02T13:27:18.654Z</time></trkpt><trkpt lat="45.7685479" lon="8.4820047"><ele>451.0</ele><time>2026-05-02T13:27:20.656Z</time></trkpt><trkpt lat="45.7685624" lon="8.4818877"><ele>451.00000000000006</ele><time>2026-05-02T13:27:22.656Z</time></trkpt><trkpt lat="45.7685852" lon="8.4817732"><ele>451.0</ele><time>2026-05-02T13:27:24.655Z</time></trkpt><trkpt lat="45.7686281" lon="8.4816954"><ele>450.50000000000006</ele><time>2026-05-02T13:27:26.656Z</time></trkpt><trkpt lat="45.7686897" lon="8.4816554"><ele>450.0</ele><time>2026-05-02T13:27:28.654Z</time></trkpt><trkpt lat="45.7687592" lon="8.4816374"><ele>449.5</ele><time>2026-05-02T13:27:30.656Z</time></trkpt><trkpt lat="45.768818" lon="8.4815439"><ele>449.0</ele><time>2026-05-02T13:27:33.654Z</time></trkpt><trkpt lat="45.7688432" lon="8.4814435"><ele>448.50000000000006</ele><time>2026-05-02T13:27:36.655Z</time></trkpt><trkpt lat="45.7689145" lon="8.4813649"><ele>448.0</ele><time>2026-05-02T13:27:39.654Z</time></trkpt><trkpt lat="45.7689372" lon="8.4812611"><ele>447.7142857142857</ele><time>2026-05-02T13:27:41.655Z</time></trkpt><trkpt lat="45.7689493" lon="8.4811561"><ele>447.42857142857144</ele><time>2026-05-02T13:27:43.654Z</time></trkpt><trkpt lat="45.7689699" lon="8.4810529"><ele>447.1428571428571</ele><time>2026-05-02T13:27:45.656Z</time></trkpt><trkpt lat="45.7689626" lon="8.4809503"><ele>446.8571428571429</ele><time>2026-05-02T13:27:47.654Z</time></trkpt><trkpt lat="45.768941" lon="8.4808534"><ele>446.57142857142856</ele><time>2026-05-02T13:27:49.654Z</time></trkpt><trkpt lat="45.7689021" lon="8.4807765"><ele>446.2857142857143</ele><time>2026-05-02T13:27:51.656Z</time></trkpt><trkpt lat="45.7688842" lon="8.4806675"><ele>446.0</ele><time>2026-05-02T13:27:54.654Z</time></trkpt><trkpt lat="45.7688559" lon="8.4805857"><ele>445.99999999999994</ele><time>2026-05-02T13:27:56.654Z</time></trkpt><trkpt lat="45.768822" lon="8.4804762"><ele>446.0</ele><time>2026-05-02T13:27:58.654Z</time></trkpt><trkpt lat="45.7687676" lon="8.4803424"><ele>446.0</ele><time>2026-05-02T13:28:00.655Z</time></trkpt><trkpt lat="45.7687275" lon="8.4802361"><ele>446.0</ele><time>2026-05-02T13:28:02.655Z</time></trkpt><trkpt lat="45.7686656" lon="8.4801744"><ele>445.99999999999994</ele><time>2026-05-02T13:28:04.655Z</time></trkpt><trkpt lat="45.7686192" lon="8.4800935"><ele>446.0</ele><time>2026-05-02T13:28:10.655Z</time></trkpt><trkpt lat="45.7685769" lon="8.4800014"><ele>445.66666666666663</ele><time>2026-05-02T13:28:12.654Z</time></trkpt><trkpt lat="45.7685352" lon="8.4799197"><ele>445.3333333333333</ele><time>2026-05-02T13:28:14.655Z</time></trkpt><trkpt lat="45.7684743" lon="8.4798374"><ele>445.0</ele><time>2026-05-02T13:28:17.656Z</time></trkpt><trkpt lat="45.7684347" lon="8.4797577"><ele>444.66666666666663</ele><time>2026-05-02T13:28:20.654Z</time></trkpt><trkpt lat="45.7683674" lon="8.4796802"><ele>444.3333333333333</ele><time>2026-05-02T13:28:23.656Z</time></trkpt><trkpt lat="45.7683006" lon="8.4796182"><ele>444.0</ele><time>2026-05-02T13:28:26.655Z</time></trkpt><trkpt lat="45.7682567" lon="8.479545"><ele>443.3333333333333</ele><time>2026-05-02T13:28:29.655Z</time></trkpt><trkpt lat="45.7681989" lon="8.4794334"><ele>442.66666666666663</ele><time>2026-05-02T13:28:32.655Z</time></trkpt><trkpt lat="45.7681489" lon="8.4793516"><ele>442.0</ele><time>2026-05-02T13:28:34.655Z</time></trkpt><trkpt lat="45.7681177" lon="8.4792686"><ele>441.3333333333333</ele><time>2026-05-02T13:28:36.655Z</time></trkpt><trkpt lat="45.7680828" lon="8.4791833"><ele>440.66666666666663</ele><time>2026-05-02T13:28:39.654Z</time></trkpt><trkpt lat="45.7681359" lon="8.4790864"><ele>440.0</ele><time>2026-05-02T13:28:44.654Z</time></trkpt><trkpt lat="45.7682246" lon="8.4789928"><ele>440.0</ele><time>2026-05-02T13:28:46.654Z</time></trkpt><trkpt lat="45.7682815" lon="8.4788628"><ele>440.0</ele><time>2026-05-02T13:28:48.654Z</time></trkpt><trkpt lat="45.7683092" lon="8.4787043"><ele>440.0</ele><time>2026-05-02T13:28:50.656Z</time></trkpt><trkpt lat="45.7683211" lon="8.4785491"><ele>440.0</ele><time>2026-05-02T13:28:52.656Z</time></trkpt><trkpt lat="45.7683254" lon="8.4783885"><ele>440.0</ele><time>2026-05-02T13:28:54.655Z</time></trkpt><trkpt lat="45.7683517" lon="8.4782283"><ele>439.6</ele><time>2026-05-02T13:28:56.655Z</time></trkpt><trkpt lat="45.7683713" lon="8.4781017"><ele>439.2</ele><time>2026-05-02T13:28:59.654Z</time></trkpt><trkpt lat="45.7684532" lon="8.4780613"><ele>438.79999999999995</ele><time>2026-05-02T13:29:02.654Z</time></trkpt><trkpt lat="45.768539" lon="8.4781001"><ele>438.4</ele><time>2026-05-02T13:29:04.654Z</time></trkpt><trkpt lat="45.7686366" lon="8.4781389"><ele>438.0</ele><time>2026-05-02T13:29:06.654Z</time></trkpt><trkpt lat="45.7687233" lon="8.47825"><ele>439.1666666666667</ele><time>2026-05-02T13:29:08.654Z</time></trkpt><trkpt lat="45.7687667" lon="8.4783248"><ele>440.33333333333337</ele><time>2026-05-02T13:29:09.654Z</time></trkpt><trkpt lat="45.768814" lon="8.4784074"><ele>441.5</ele><time>2026-05-02T13:29:10.655Z</time></trkpt><trkpt lat="45.7688528" lon="8.4784903"><ele>442.6666666666667</ele><time>2026-05-02T13:29:11.655Z</time></trkpt><trkpt lat="45.7689323" lon="8.4786501"><ele>443.83333333333337</ele><time>2026-05-02T13:29:13.655Z</time></trkpt><trkpt lat="45.7689804" lon="8.4787446"><ele>445.0</ele><time>2026-05-02T13:29:14.654Z</time></trkpt><trkpt lat="45.7690336" lon="8.4788503"><ele>445.00000000000006</ele><time>2026-05-02T13:29:15.655Z</time></trkpt><trkpt lat="45.7690747" lon="8.4789687"><ele>445.0</ele><time>2026-05-02T13:29:16.654Z</time></trkpt><trkpt lat="45.769115" lon="8.4790626"><ele>445.0</ele><time>2026-05-02T13:29:17.654Z</time></trkpt><trkpt lat="45.7691627" lon="8.4791556"><ele>445.0</ele><time>2026-05-02T13:29:18.654Z</time></trkpt><trkpt lat="45.7691949" lon="8.4792489"><ele>445.00000000000006</ele><time>2026-05-02T13:29:19.654Z</time></trkpt><trkpt lat="45.769232" lon="8.4793386"><ele>445.0</ele><time>2026-05-02T13:29:20.654Z</time></trkpt><trkpt lat="45.7692661" lon="8.4794296"><ele>445.00000000000006</ele><time>2026-05-02T13:29:21.654Z</time></trkpt><trkpt lat="45.7693041" lon="8.4795019"><ele>445.0</ele><time>2026-05-02T13:29:22.654Z</time></trkpt><trkpt lat="45.7693498" lon="8.4795725"><ele>445.0</ele><time>2026-05-02T13:29:23.655Z</time></trkpt><trkpt lat="45.7694093" lon="8.4796426"><ele>445.0</ele><time>2026-05-02T13:29:24.654Z</time></trkpt><trkpt lat="45.7694834" lon="8.4797483"><ele>445.00000000000006</ele><time>2026-05-02T13:29:26.654Z</time></trkpt><trkpt lat="45.7695087" lon="8.479836"><ele>445.0</ele><time>2026-05-02T13:29:27.654Z</time></trkpt><trkpt lat="45.7695437" lon="8.47993"><ele>445.00000000000006</ele><time>2026-05-02T13:29:28.654Z</time></trkpt><trkpt lat="45.7695766" lon="8.4800383"><ele>445.0</ele><time>2026-05-02T13:29:29.655Z</time></trkpt><trkpt lat="45.7696043" lon="8.4801542"><ele>445.0</ele><time>2026-05-02T13:29:30.654Z</time></trkpt><trkpt lat="45.769639" lon="8.4802891"><ele>445.0</ele><time>2026-05-02T13:29:31.656Z</time></trkpt><trkpt lat="45.7696681" lon="8.4804073"><ele>445.00000000000006</ele><time>2026-05-02T13:29:32.654Z</time></trkpt><trkpt lat="45.7696902" lon="8.4805343"><ele>445.0</ele><time>2026-05-02T13:29:33.654Z</time></trkpt><trkpt lat="45.7697142" lon="8.4806489"><ele>445.0</ele><time>2026-05-02T13:29:34.655Z</time></trkpt><trkpt lat="45.7697461" lon="8.4807712"><ele>445.0</ele><time>2026-05-02T13:29:35.655Z</time></trkpt><trkpt lat="45.7697784" lon="8.4808813"><ele>445.0</ele><time>2026-05-02T13:29:36.654Z</time></trkpt><trkpt lat="45.7698033" lon="8.4809904"><ele>445.0</ele><time>2026-05-02T13:29:37.654Z</time></trkpt><trkpt lat="45.7698578" lon="8.4811656"><ele>445.0</ele><time>2026-05-02T13:29:39.656Z</time></trkpt><trkpt lat="45.7699003" lon="8.4812426"><ele>444.7142857142857</ele><time>2026-05-02T13:29:40.654Z</time></trkpt><trkpt lat="45.7699538" lon="8.4813117"><ele>444.4285714285714</ele><time>2026-05-02T13:29:41.655Z</time></trkpt><trkpt lat="45.7700159" lon="8.4813801"><ele>444.1428571428571</ele><time>2026-05-02T13:29:42.654Z</time></trkpt><trkpt lat="45.770065" lon="8.4814384"><ele>443.8571428571429</ele><time>2026-05-02T13:29:43.655Z</time></trkpt><trkpt lat="45.770107" lon="8.481514"><ele>443.57142857142856</ele><time>2026-05-02T13:29:44.655Z</time></trkpt><trkpt lat="45.7701493" lon="8.4816153"><ele>443.2857142857143</ele><time>2026-05-02T13:29:45.654Z</time></trkpt><trkpt lat="45.7701861" lon="8.4817051"><ele>443.0</ele><time>2026-05-02T13:29:46.655Z</time></trkpt><trkpt lat="45.7702174" lon="8.4818469"><ele>442.99999999999994</ele><time>2026-05-02T13:29:48.654Z</time></trkpt><trkpt lat="45.7702192" lon="8.4819738"><ele>443.0</ele><time>2026-05-02T13:29:50.654Z</time></trkpt><trkpt lat="45.7701945" lon="8.4821124"><ele>443.0</ele><time>2026-05-02T13:29:52.655Z</time></trkpt><trkpt lat="45.7701735" lon="8.4822148"><ele>443.0</ele><time>2026-05-02T13:29:53.654Z</time></trkpt><trkpt lat="45.7701556" lon="8.4823073"><ele>442.99999999999994</ele><time>2026-05-02T13:29:54.654Z</time></trkpt><trkpt lat="45.7701469" lon="8.4823992"><ele>443.0</ele><time>2026-05-02T13:29:55.654Z</time></trkpt><trkpt lat="45.7701361" lon="8.4825484"><ele>443.0</ele><time>2026-05-02T13:29:57.654Z</time></trkpt><trkpt lat="45.7701617" lon="8.4826996"><ele>443.0</ele><time>2026-05-02T13:29:59.656Z</time></trkpt><trkpt lat="45.7702184" lon="8.4828564"><ele>443.0</ele><time>2026-05-02T13:30:01.655Z</time></trkpt><trkpt lat="45.7702668" lon="8.4830242"><ele>443.0</ele><time>2026-05-02T13:30:03.655Z</time></trkpt><trkpt lat="45.7703324" lon="8.4831582"><ele>444.2</ele><time>2026-05-02T13:30:05.656Z</time></trkpt><trkpt lat="45.7703719" lon="8.4832975"><ele>445.4</ele><time>2026-05-02T13:30:07.654Z</time></trkpt><trkpt lat="45.7704064" lon="8.4833864"><ele>446.59999999999997</ele><time>2026-05-02T13:30:09.654Z</time></trkpt><trkpt lat="45.7703956" lon="8.4835083"><ele>447.79999999999995</ele><time>2026-05-02T13:30:11.655Z</time></trkpt><trkpt lat="45.7703825" lon="8.4836611"><ele>449.0</ele><time>2026-05-02T13:30:13.654Z</time></trkpt><trkpt lat="45.770361" lon="8.4838176"><ele>449.0</ele><time>2026-05-02T13:30:15.653Z</time></trkpt><trkpt lat="45.7703215" lon="8.4839718"><ele>449.0</ele><time>2026-05-02T13:30:17.655Z</time></trkpt><trkpt lat="45.7702776" lon="8.4841377"><ele>449.0</ele><time>2026-05-02T13:30:19.654Z</time></trkpt><trkpt lat="45.7702281" lon="8.4842837"><ele>449.0</ele><time>2026-05-02T13:30:21.654Z</time></trkpt><trkpt lat="45.7701968" lon="8.4843636"><ele>449.0</ele><time>2026-05-02T13:30:22.654Z</time></trkpt><trkpt lat="45.7701684" lon="8.4844457"><ele>447.3333333333333</ele><time>2026-05-02T13:30:23.654Z</time></trkpt><trkpt lat="45.770122" lon="8.4845472"><ele>445.66666666666663</ele><time>2026-05-02T13:30:25.654Z</time></trkpt><trkpt lat="45.7700679" lon="8.4846391"><ele>444.0</ele><time>2026-05-02T13:30:28.654Z</time></trkpt><trkpt lat="45.7699763" lon="8.4847138"><ele>442.33333333333337</ele><time>2026-05-02T13:30:30.656Z</time></trkpt><trkpt lat="45.7699114" lon="8.4847474"><ele>440.6666666666667</ele><time>2026-05-02T13:30:31.654Z</time></trkpt><trkpt lat="45.7698387" lon="8.4847846"><ele>439.0</ele><time>2026-05-02T13:30:32.654Z</time></trkpt><trkpt lat="45.7697594" lon="8.4848307"><ele>438.4</ele><time>2026-05-02T13:30:33.654Z</time></trkpt><trkpt lat="45.7696682" lon="8.4848735"><ele>437.79999999999995</ele><time>2026-05-02T13:30:34.654Z</time></trkpt><trkpt lat="45.7695748" lon="8.4849183"><ele>437.20000000000005</ele><time>2026-05-02T13:30:35.655Z</time></trkpt><trkpt lat="45.7694837" lon="8.4849519"><ele>436.6</ele><time>2026-05-02T13:30:36.654Z</time></trkpt><trkpt lat="45.7693804" lon="8.4849808"><ele>436.0</ele><time>2026-05-02T13:30:37.654Z</time></trkpt><trkpt lat="45.7692822" lon="8.4850013"><ele>435.5</ele><time>2026-05-02T13:30:38.653Z</time></trkpt><trkpt lat="45.7691817" lon="8.4850434"><ele>435.0</ele><time>2026-05-02T13:30:39.655Z</time></trkpt><trkpt lat="45.7690758" lon="8.4851311"><ele>434.5</ele><time>2026-05-02T13:30:40.653Z</time></trkpt><trkpt lat="45.7689668" lon="8.4852553"><ele>434.0</ele><time>2026-05-02T13:30:41.654Z</time></trkpt><trkpt lat="45.768864" lon="8.4853804"><ele>434.5</ele><time>2026-05-02T13:30:42.654Z</time></trkpt><trkpt lat="45.7687654" lon="8.485498"><ele>435.0</ele><time>2026-05-02T13:30:43.656Z</time></trkpt><trkpt lat="45.7686693" lon="8.4856135"><ele>435.5</ele><time>2026-05-02T13:30:44.656Z</time></trkpt><trkpt lat="45.7685757" lon="8.485727"><ele>436.0</ele><time>2026-05-02T13:30:45.654Z</time></trkpt><trkpt lat="45.7684853" lon="8.4858449"><ele>433.83333333333337</ele><time>2026-05-02T13:30:46.654Z</time></trkpt><trkpt lat="45.7684017" lon="8.4859485"><ele>431.6666666666667</ele><time>2026-05-02T13:30:47.655Z</time></trkpt><trkpt lat="45.7683292" lon="8.4860537"><ele>429.5</ele><time>2026-05-02T13:30:48.654Z</time></trkpt><trkpt lat="45.7682672" lon="8.4861604"><ele>427.33333333333337</ele><time>2026-05-02T13:30:49.654Z</time></trkpt><trkpt lat="45.7682364" lon="8.4862564"><ele>425.1666666666667</ele><time>2026-05-02T13:30:50.655Z</time></trkpt><trkpt lat="45.7681986" lon="8.4863322"><ele>423.0</ele><time>2026-05-02T13:30:51.654Z</time></trkpt><trkpt lat="45.7681003" lon="8.4863792"><ele>422.7142857142857</ele><time>2026-05-02T13:30:53.655Z</time></trkpt><trkpt lat="45.7680317" lon="8.4864154"><ele>422.42857142857144</ele><time>2026-05-02T13:30:54.654Z</time></trkpt><trkpt lat="45.7679604" lon="8.486469"><ele>422.14285714285717</ele><time>2026-05-02T13:30:55.653Z</time></trkpt><trkpt lat="45.7678919" lon="8.4865195"><ele>421.8571428571429</ele><time>2026-05-02T13:30:56.655Z</time></trkpt><trkpt lat="45.7678401" lon="8.4866054"><ele>421.57142857142856</ele><time>2026-05-02T13:30:57.654Z</time></trkpt><trkpt lat="45.7677895" lon="8.4866682"><ele>421.28571428571433</ele><time>2026-05-02T13:30:58.655Z</time></trkpt><trkpt lat="45.7677431" lon="8.4867295"><ele>421.0</ele><time>2026-05-02T13:30:59.654Z</time></trkpt><trkpt lat="45.7676722" lon="8.4868185"><ele>421.00000000000006</ele><time>2026-05-02T13:31:01.655Z</time></trkpt><trkpt lat="45.7676546" lon="8.4869062"><ele>421.0</ele><time>2026-05-02T13:31:04.655Z</time></trkpt><trkpt lat="45.7677188" lon="8.4870571"><ele>421.0</ele><time>2026-05-02T13:31:06.654Z</time></trkpt><trkpt lat="45.7677516" lon="8.4871369"><ele>421.0</ele><time>2026-05-02T13:31:07.654Z</time></trkpt><trkpt lat="45.7677696" lon="8.4872361"><ele>421.00000000000006</ele><time>2026-05-02T13:31:08.655Z</time></trkpt><trkpt lat="45.767781" lon="8.4873489"><ele>421.0</ele><time>2026-05-02T13:31:09.655Z</time></trkpt><trkpt lat="45.7677944" lon="8.4874485"><ele>420.6</ele><time>2026-05-02T13:31:10.655Z</time></trkpt><trkpt lat="45.7678145" lon="8.4876088"><ele>420.20000000000005</ele><time>2026-05-02T13:31:12.653Z</time></trkpt><trkpt lat="45.7677961" lon="8.4877857"><ele>419.79999999999995</ele><time>2026-05-02T13:31:14.656Z</time></trkpt><trkpt lat="45.7677694" lon="8.4878875"><ele>419.4</ele><time>2026-05-02T13:31:15.653Z</time></trkpt><trkpt lat="45.7677317" lon="8.4880066"><ele>419.0</ele><time>2026-05-02T13:31:16.655Z</time></trkpt><trkpt lat="45.767703" lon="8.4881217"><ele>418.8333333333333</ele><time>2026-05-02T13:31:17.654Z</time></trkpt><trkpt lat="45.7676947" lon="8.4882557"><ele>418.66666666666663</ele><time>2026-05-02T13:31:18.655Z</time></trkpt><trkpt lat="45.7676918" lon="8.488382"><ele>418.5</ele><time>2026-05-02T13:31:19.654Z</time></trkpt><trkpt lat="45.7676733" lon="8.4885038"><ele>418.33333333333337</ele><time>2026-05-02T13:31:20.655Z</time></trkpt><trkpt lat="45.7676576" lon="8.4886155"><ele>418.1666666666667</ele><time>2026-05-02T13:31:21.655Z</time></trkpt><trkpt lat="45.7676236" lon="8.4887046"><ele>418.0</ele><time>2026-05-02T13:31:22.654Z</time></trkpt><trkpt lat="45.7675947" lon="8.4887882"><ele>413.0</ele><time>2026-05-02T13:31:23.654Z</time></trkpt><trkpt lat="45.7675664" lon="8.4888834"><ele>413.0</ele><time>2026-05-02T13:31:24.654Z</time></trkpt><trkpt lat="45.767546" lon="8.488976"><ele>413.0</ele><time>2026-05-02T13:31:25.656Z</time></trkpt><trkpt lat="45.7675226" lon="8.4890625"><ele>413.0</ele><time>2026-05-02T13:31:26.655Z</time></trkpt><trkpt lat="45.7674848" lon="8.4891675"><ele>413.0</ele><time>2026-05-02T13:31:28.653Z</time></trkpt></trkseg></trk></gpx>